Shinei Maru — JM6456 — position and weather

sailwx.info

Track history (hours):
 
Tides and Currents Weather Stations Pressure Air Temp Water Temp Dewpoint Dewpoint Depression Visibility Wind Speed Wind Dir Waves Ship Positions

Shinei Maru

Last reported at 2017-Oct-20 00:13 UTC. Time now 2017-Oct-20 12:43 UTC.
Position N 34°38' E 135°27'.

Length 41 m.

Type: Tanker. MMSI: 431008799.

Date/timePositionNaut miles runAvg speedWind from/ knotsBaromVisibWave heightAir tempDewpointWater temp
2017-Oct-20 00:13N 34°38' E 135°27'3 8.4
2017-Oct-19 23:54N 34°36' E 135°25'5 2.5
2017-Oct-19 22:00N 34°36' E 135°19'5 8.8
2017-Oct-19 21:28N 34°39' E 135°14'3 6.1
2017-Oct-19 20:58N 34°41' E 135°12'0 0.0
2017-Oct-19 20:28N 34°41' E 135°12'1 2.6
2017-Oct-19 19:56N 34°39' E 135°12'2 4.0
2017-Oct-19 19:30N 34°39' E 135°14'5 9.4
2017-Oct-19 19:00N 34°39' E 135°20'5 9.4
2017-Oct-19 18:30N 34°39' E 135°25'1 0.0
2017-Oct-18 22:33N 34°39' E 135°26'0 1.2
2017-Oct-18 22:29N 34°39' E 135°27'5 0.3
2017-Oct-18 03:06N 34°35' E 135°21'110.1
2017-Oct-18 02:58N 34°36' E 135°20'510.2
2017-Oct-18 02:28N 34°40' E 135°16'3 5.9
2017-Oct-18 01:56N 34°41' E 135°12'1 1.7
2017-Oct-18 01:29N 34°41' E 135°13'3 5.4
2017-Oct-18 00:53N 34°42' E 135°17'0 0.0
2017-Oct-18 00:23N 34°42' E 135°17'0 0.0
2017-Oct-17 23:59N 34°42' E 135°17'1 3.0
2017-Oct-17 23:29N 34°42' E 135°19'5 9.8
2017-Oct-17 23:00N 34°40' E 135°24'3 0.2
2017-Oct-17 08:33N 34°39' E 135°28'1 7.6
2017-Oct-17 08:22N 34°39' E 135°26'4 9.6
2017-Oct-17 08:00N 34°39' E 135°22'2 4.0
2017-Oct-17 07:29N 34°39' E 135°19'0 0.1
2017-Oct-17 06:41N 34°39' E 135°19'1 3.3
2017-Oct-17 06:30N 34°38' E 135°19'1 2.0
2017-Oct-17 05:56N 34°38' E 135°21'0 0.0
2017-Oct-17 05:26N 34°38' E 135°21'0 0.0
2017-Oct-17 04:55N 34°38' E 135°21'3 7.7
2017-Oct-17 04:30N 34°37' E 135°24'1 0.1
2017-Oct-16 00:47N 34°35' E 135°23'3 1.5
2017-Oct-15 22:51N 34°38' E 135°25'0 0.2
2017-Oct-15 22:29N 34°38' E 135°25'2 3.4
2017-Oct-15 22:00N 34°38' E 135°23'6 5.0
2017-Oct-15 20:53N 34°43' E 135°20'2 4.8
2017-Oct-15 20:30N 34°41' E 135°21'5 9.1
2017-Oct-15 20:00N 34°39' E 135°26'4 0.2
2017-Oct-14 23:20N 34°35' E 135°25'2 6.3
2017-Oct-14 23:00N 34°35' E 135°23'4 7.1
2017-Oct-14 22:26N 34°32' E 135°19'1 0.7
2017-Oct-14 20:48N 34°32' E 135°20'0 0.1
2017-Oct-14 20:27N 34°32' E 135°20'4 8.8
2017-Oct-14 19:58N 34°35' E 135°23'0 0.0
2017-Oct-13 02:36N 34°35' E 135°23'1 7.3
2017-Oct-13 02:30N 34°36' E 135°24'3 3.8
2017-Oct-13 01:34N 34°39' E 135°26'1 9.4
2017-Oct-13 01:27N 34°39' E 135°25'4 9.1
2017-Oct-13 01:00N 34°40' E 135°20'5 9.1
2017-Oct-13 00:29N 34°41' E 135°15'2 3.8
2017-Oct-12 23:58N 34°41' E 135°12'1 2.8
2017-Oct-12 23:30N 34°41' E 135°14'5 9.4
2017-Oct-12 22:59N 34°40' E 135°20'5 9.6
2017-Oct-12 22:25N 34°39' E 135°26'3 0.1
2017-Oct-11 23:36N 34°36' E 135°24'3 1.4
2017-Oct-11 21:38N 34°35' E 135°21'2 9.7
2017-Oct-11 21:25N 34°36' E 135°19'4 9.9
2017-Oct-11 21:00N 34°38' E 135°15'3 6.4
2017-Oct-11 20:27N 34°41' E 135°12'0 0.1
2017-Oct-11 20:00N 34°41' E 135°12'4 6.9
2017-Oct-11 19:28N 34°39' E 135°16'4 9.4
2017-Oct-11 19:00N 34°39' E 135°21'7 0.4
2017-Oct-10 23:55N 34°41' E 135°12'0 0.0
2017-Oct-10 23:25N 34°41' E 135°12'1 1.6
2017-Oct-10 23:00N 34°41' E 135°13'0 0.1
2017-Oct-10 22:27N 34°41' E 135°13'3 5.9
2017-Oct-10 22:01N 34°39' E 135°15'1 1.9
2017-Oct-10 21:29N 34°38' E 135°15'0 0.5
2017-Oct-10 21:00N 34°39' E 135°15'5 9.4
2017-Oct-10 20:30N 34°40' E 135°21'5 9.4
2017-Oct-10 20:00N 34°39' E 135°26'5 0.3
2017-Oct-10 02:10N 34°35' E 135°23'210.2
2017-Oct-10 01:59N 34°36' E 135°21'5 9.9
2017-Oct-10 01:29N 34°41' E 135°18'2 2.8
2017-Oct-10 00:54N 34°42' E 135°17'0 0.0
2017-Oct-10 00:30N 34°42' E 135°17'  
Track history (hours):
 
Tides and Currents Weather Stations Pressure Air Temp Water Temp Dewpoint Dewpoint Depression Visibility Wind Speed Wind Dir Waves Ship Positions

Shinei Maru

Last reported at 2017-Oct-20 00:13 UTC. Time now 2017-Oct-20 12:43 UTC.
Position N 34°38' E 135°27'.

Length 41 m.

Type: Tanker. MMSI: 431008799.

Date/timePositionNaut miles runAvg speedWind from/ knotsBaromVisibWave heightAir tempDewpointWater temp
2017-Oct-20 00:13N 34°38' E 135°27'3 8.4
2017-Oct-19 23:54N 34°36' E 135°25'5 2.5
2017-Oct-19 22:00N 34°36' E 135°19'5 8.8
2017-Oct-19 21:28N 34°39' E 135°14'3 6.1
2017-Oct-19 20:58N 34°41' E 135°12'0 0.0
2017-Oct-19 20:28N 34°41' E 135°12'1 2.6
2017-Oct-19 19:56N 34°39' E 135°12'2 4.0
2017-Oct-19 19:30N 34°39' E 135°14'5 9.4
2017-Oct-19 19:00N 34°39' E 135°20'5 9.4
2017-Oct-19 18:30N 34°39' E 135°25'1 0.0
2017-Oct-18 22:33N 34°39' E 135°26'0 1.2
2017-Oct-18 22:29N 34°39' E 135°27'5 0.3
2017-Oct-18 03:06N 34°35' E 135°21'110.1
2017-Oct-18 02:58N 34°36' E 135°20'510.2
2017-Oct-18 02:28N 34°40' E 135°16'3 5.9
2017-Oct-18 01:56N 34°41' E 135°12'1 1.7
2017-Oct-18 01:29N 34°41' E 135°13'3 5.4
2017-Oct-18 00:53N 34°42' E 135°17'0 0.0
2017-Oct-18 00:23N 34°42' E 135°17'0 0.0
2017-Oct-17 23:59N 34°42' E 135°17'1 3.0
2017-Oct-17 23:29N 34°42' E 135°19'5 9.8
2017-Oct-17 23:00N 34°40' E 135°24'3 0.2
2017-Oct-17 08:33N 34°39' E 135°28'1 7.6
2017-Oct-17 08:22N 34°39' E 135°26'4 9.6
2017-Oct-17 08:00N 34°39' E 135°22'2 4.0
2017-Oct-17 07:29N 34°39' E 135°19'0 0.1
2017-Oct-17 06:41N 34°39' E 135°19'1 3.3
2017-Oct-17 06:30N 34°38' E 135°19'1 2.0
2017-Oct-17 05:56N 34°38' E 135°21'0 0.0
2017-Oct-17 05:26N 34°38' E 135°21'0 0.0
2017-Oct-17 04:55N 34°38' E 135°21'3 7.7
2017-Oct-17 04:30N 34°37' E 135°24'1 0.1
2017-Oct-16 00:47N 34°35' E 135°23'3 1.5
2017-Oct-15 22:51N 34°38' E 135°25'0 0.2
2017-Oct-15 22:29N 34°38' E 135°25'2 3.4
2017-Oct-15 22:00N 34°38' E 135°23'6 5.0
2017-Oct-15 20:53N 34°43' E 135°20'2 4.8
2017-Oct-15 20:30N 34°41' E 135°21'5 9.1
2017-Oct-15 20:00N 34°39' E 135°26'4 0.2
2017-Oct-14 23:20N 34°35' E 135°25'2 6.3
2017-Oct-14 23:00N 34°35' E 135°23'4 7.1
2017-Oct-14 22:26N 34°32' E 135°19'1 0.7
2017-Oct-14 20:48N 34°32' E 135°20'0 0.1
2017-Oct-14 20:27N 34°32' E 135°20'4 8.8
2017-Oct-14 19:58N 34°35' E 135°23'0 0.0
2017-Oct-13 02:36N 34°35' E 135°23'1 7.3
2017-Oct-13 02:30N 34°36' E 135°24'3 3.8
2017-Oct-13 01:34N 34°39' E 135°26'1 9.4
2017-Oct-13 01:27N 34°39' E 135°25'4 9.1
2017-Oct-13 01:00N 34°40' E 135°20'5 9.1
2017-Oct-13 00:29N 34°41' E 135°15'2 3.8
2017-Oct-12 23:58N 34°41' E 135°12'1 2.8
2017-Oct-12 23:30N 34°41' E 135°14'5 9.4
2017-Oct-12 22:59N 34°40' E 135°20'5 9.6
2017-Oct-12 22:25N 34°39' E 135°26'3 0.1
2017-Oct-11 23:36N 34°36' E 135°24'3 1.4
2017-Oct-11 21:38N 34°35' E 135°21'2 9.7
2017-Oct-11 21:25N 34°36' E 135°19'4 9.9
2017-Oct-11 21:00N 34°38' E 135°15'3 6.4
2017-Oct-11 20:27N 34°41' E 135°12'0 0.1
2017-Oct-11 20:00N 34°41' E 135°12'4 6.9
2017-Oct-11 19:28N 34°39' E 135°16'4 9.4
2017-Oct-11 19:00N 34°39' E 135°21'7 0.4
2017-Oct-10 23:55N 34°41' E 135°12'0 0.0
2017-Oct-10 23:25N 34°41' E 135°12'1 1.6
2017-Oct-10 23:00N 34°41' E 135°13'0 0.1
2017-Oct-10 22:27N 34°41' E 135°13'3 5.9
2017-Oct-10 22:01N 34°39' E 135°15'1 1.9
2017-Oct-10 21:29N 34°38' E 135°15'0 0.5
2017-Oct-10 21:00N 34°39' E 135°15'5 9.4
2017-Oct-10 20:30N 34°40' E 135°21'5 9.4
2017-Oct-10 20:00N 34°39' E 135°26'5 0.3
2017-Oct-10 02:10N 34°35' E 135°23'210.2
2017-Oct-10 01:59N 34°36' E 135°21'5 9.9
2017-Oct-10 01:29N 34°41' E 135°18'2 2.8
2017-Oct-10 00:54N 34°42' E 135°17'0 0.0
2017-Oct-10 00:30N 34°42' E 135°17'  

Dump ship's entire track history